Time,TemperatureF,DewpointF,PressureIn,WindDirection,WindDirectionDegrees,WindSpeedMPH,WindSpeedGustMPH,Humidity,HourlyPrecipIn,Conditions,Clouds,dailyrainin,SolarRadiationWatts/m^2,SoftwareType,DateUTC
2013-07-20 00:01:00,59.0,50.0,-100.00,East,86,1.0,4.0,73,0.00,,,0.00,0.000000,,2013-07-20 07:01:00,
2013-07-20 00:33:00,57.0,51.0,-100.00,East,84,2.0,4.0,79,0.00,,,0.00,0.000000,,2013-07-20 07:33:00,
2013-07-20 00:44:00,57.0,51.0,-100.00,East,84,2.0,4.0,79,0.00,,,0.00,0.000000,,2013-07-20 07:44:00,
2013-07-20 00:54:00,57.0,51.0,-100.00,East,84,2.0,4.0,79,0.00,,,0.00,0.000000,,2013-07-20 07:54:00,
2013-07-20 01:01:00,57.0,51.0,-100.00,East,84,2.0,4.0,79,0.00,,,0.00,0.000000,,2013-07-20 08:01:00,
2013-07-20 01:44:00,54.0,50.0,-100.00,East,88,3.0,5.0,85,0.00,,,0.00,0.000000,,2013-07-20 08:44:00,
2013-07-20 01:52:00,54.0,50.0,-100.00,East,88,3.0,5.0,85,0.00,,,0.00,0.000000,,2013-07-20 08:52:00,
2013-07-20 02:01:00,54.0,50.0,-100.00,East,88,3.0,5.0,85,0.00,,,0.00,0.000000,,2013-07-20 09:01:00,
2013-07-20 03:01:00,52.0,49.0,-100.00,ENE,66,2.0,5.0,90,0.00,,,0.00,0.000000,,2013-07-20 10:01:00,
2013-07-20 04:01:00,51.0,49.0,-100.00,East,93,0.0,8.0,93,0.00,,,0.00,0.000000,,2013-07-20 11:01:00,
2013-07-20 04:22:00,50.0,48.0,-100.00,ENE,76,0.0,0.0,94,0.00,,,0.00,0.000000,,2013-07-20 11:22:00,
2013-07-20 04:32:00,50.0,48.0,-100.00,ENE,76,0.0,0.0,94,0.00,,,0.00,0.000000,,2013-07-20 11:32:00,
2013-07-20 04:43:00,50.0,48.0,-100.00,ENE,76,0.0,0.0,94,0.00,,,0.00,0.000000,,2013-07-20 11:43:00,
2013-07-20 04:52:00,50.0,48.0,-100.00,ENE,76,0.0,0.0,94,0.00,,,0.00,0.000000,,2013-07-20 11:52:00,
2013-07-20 05:01:00,50.0,48.0,-100.00,ENE,76,0.0,0.0,94,0.00,,,0.00,0.000000,,2013-07-20 12:01:00,
2013-07-20 07:32:00,50.0,49.0,-100.00,NE,36,2.0,4.0,95,0.00,,,0.00,18.000000,,2013-07-20 14:32:00,
2013-07-20 07:43:00,50.0,49.0,-100.00,NE,36,2.0,4.0,95,0.00,,,0.00,18.000000,,2013-07-20 14:43:00,
2013-07-20 07:53:00,50.0,49.0,-100.00,NE,36,2.0,4.0,95,0.00,,,0.00,18.000000,,2013-07-20 14:53:00,
2013-07-20 08:01:00,50.0,49.0,-100.00,NE,36,2.0,4.0,95,0.00,,,0.00,18.000000,,2013-07-20 15:01:00,
2013-07-20 08:33:00,56.0,50.0,-100.00,NE,40,2.0,3.0,79,0.00,,,0.00,181.000000,,2013-07-20 15:33:00,
2013-07-20 08:44:00,56.0,50.0,-100.00,NE,40,2.0,3.0,79,0.00,,,0.00,181.000000,,2013-07-20 15:44:00,
2013-07-20 08:53:00,56.0,50.0,-100.00,NE,40,2.0,3.0,79,0.00,,,0.00,181.000000,,2013-07-20 15:53:00,
2013-07-20 09:01:00,56.0,50.0,-100.00,NE,40,2.0,3.0,79,0.00,,,0.00,181.000000,,2013-07-20 16:01:00,
2013-07-20 09:32:00,64.0,50.0,-100.00,NE,55,3.0,6.0,61,0.00,,,0.00,392.000000,,2013-07-20 16:32:00,
2013-07-20 09:43:00,64.0,50.0,-100.00,NE,55,3.0,6.0,61,0.00,,,0.00,392.000000,,2013-07-20 16:43:00,
2013-07-20 09:52:00,64.0,50.0,-100.00,NE,55,3.0,6.0,61,0.00,,,0.00,392.000000,,2013-07-20 16:52:00,
2013-07-20 10:02:00,64.0,50.0,-100.00,NE,55,3.0,6.0,61,0.00,,,0.00,392.000000,,2013-07-20 17:02:00,
2013-07-20 10:32:00,71.0,50.0,-100.00,East,84,4.0,8.0,48,0.00,,,0.00,584.000000,,2013-07-20 17:32:00,
2013-07-20 13:35:00,85.0,50.0,-100.00,East,91,10.0,18.0,30,-99.99,,,0.00,930.000000,,2013-07-20 20:35:00,
2013-07-20 13:46:00,85.0,50.0,-100.00,East,91,10.0,18.0,30,-99.99,,,0.00,930.000000,,2013-07-20 20:46:00,
2013-07-20 14:35:00,87.0,52.0,-100.00,ESE,105,9.0,17.0,30,-99.99,,,0.00,939.000000,,2013-07-20 21:35:00,
2013-07-20 14:47:00,87.0,52.0,-100.00,ESE,105,9.0,17.0,30,-99.99,,,0.00,939.000000,,2013-07-20 21:47:00,
2013-07-20 14:55:00,87.0,52.0,-100.00,ESE,105,9.0,17.0,30,-99.99,,,0.00,939.000000,,2013-07-20 21:55:00,
2013-07-20 16:39:00,86.0,53.0,-100.00,East,98,10.0,18.0,32,-99.99,,,0.00,796.000000,,2013-07-20 23:39:00,
2013-07-20 16:45:00,86.0,53.0,-100.00,East,98,10.0,18.0,32,-99.99,,,0.00,796.000000,,2013-07-20 23:45:00,
2013-07-20 18:36:00,83.0,52.0,-100.00,East,96,6.0,13.0,34,-99.99,,,0.00,460.000000,,2013-07-21 01:36:00,
2013-07-20 18:51:00,-999.0,-99.9,-100.00,East,96,6.0,13.0,-999,-99.99,,,-99.99,460.000000,,2013-07-21 01:51:00,
2013-07-20 19:37:00,78.0,51.0,-100.00,ESE,104,6.0,13.0,39,-99.99,,,0.00,264.000000,,2013-07-21 02:37:00,
2013-07-20 20:46:00,69.0,52.0,-100.00,ESE,108,4.0,10.0,54,-99.99,,,0.00,49.000000,,2013-07-21 03:46:00,
2013-07-20 21:32:00,63.0,51.0,-100.00,East,88,4.0,9.0,65,-99.99,,,0.00,3.000000,,2013-07-21 04:32:00,
2013-07-20 21:43:00,63.0,51.0,-100.00,East,88,4.0,9.0,65,-99.99,,,0.00,3.000000,,2013-07-21 04:43:00,
2013-07-20 21:53:00,63.0,51.0,-100.00,East,88,4.0,9.0,65,-99.99,,,0.00,3.000000,,2013-07-21 04:53:00,
2013-07-20 22:32:00,59.0,51.0,-100.00,East,93,5.0,7.0,74,-99.99,,,0.00,0.000000,,2013-07-21 05:32:00,
2013-07-20 22:42:00,59.0,51.0,-100.00,East,93,5.0,7.0,74,-99.99,,,0.00,0.000000,,2013-07-21 05:42:00,
2013-07-20 22:52:00,59.0,51.0,-100.00,East,93,5.0,7.0,74,-99.99,,,0.00,0.000000,,2013-07-21 05:52:00,
2013-07-20 23:01:00,59.0,51.0,-100.00,East,93,5.0,7.0,74,-99.99,,,0.00,0.000000,,2013-07-21 06:01:00,
2013-07-20 23:32:00,56.0,51.0,-100.00,East,84,5.0,9.0,82,0.00,,,0.00,0.000000,,2013-07-21 06:32:00,
2013-07-20 23:43:00,56.0,51.0,-100.00,East,84,5.0,9.0,82,0.00,,,0.00,0.000000,,2013-07-21 06:43:00,
2013-07-20 23:52:00,56.0,51.0,-100.00,East,84,5.0,9.0,82,0.00,,,0.00,0.000000,,2013-07-21 06:52:00,